createdAt,value
2019-02-27T00:00:44.677Z,6.19
2019-02-27T00:01:42.868Z,6.19
2019-02-27T00:02:43.687Z,6.19
2019-02-27T00:03:42.717Z,6.25
2019-02-27T00:04:43.113Z,6.19
2019-02-27T00:05:44.134Z,6.19
2019-02-27T00:06:48.681Z,6.19
2019-02-27T00:07:43.023Z,6.19
2019-02-27T00:08:42.725Z,6.19
2019-02-27T00:09:42.872Z,6.12
2019-02-27T00:10:44.549Z,6.12
2019-02-27T00:11:47.078Z,6.19
2019-02-27T00:12:43.300Z,6.12
2019-02-27T00:13:42.748Z,6.19
2019-02-27T00:14:43.693Z,6.12
2019-02-27T00:15:43.088Z,6.19
2019-02-27T00:16:45.501Z,6.19
2019-02-27T00:17:43.201Z,6.25
2019-02-27T00:18:42.726Z,6.25
2019-02-27T00:19:44.574Z,6.25
2019-02-27T00:20:43.129Z,6.31
2019-02-27T00:21:44.548Z,6.31
2019-02-27T00:22:42.711Z,6.31
2019-02-27T00:23:42.756Z,6.37
2019-02-27T00:24:42.828Z,6.37
2019-02-27T00:25:43.150Z,6.44
2019-02-27T00:26:43.337Z,6.44
2019-02-27T00:27:50.119Z,6.44
2019-02-27T00:28:42.896Z,6.44
2019-02-27T00:29:43.292Z,6.37
2019-02-27T00:30:42.705Z,6.37
2019-02-27T00:31:46.402Z,6.37
2019-02-27T00:32:43.097Z,6.37
2019-02-27T00:33:42.906Z,6.37
2019-02-27T00:34:44.532Z,6.31
2019-02-27T00:35:42.710Z,6.37
2019-02-27T00:36:45.909Z,6.37
2019-02-27T00:37:42.925Z,6.31
2019-02-27T00:38:42.864Z,6.37
2019-02-27T00:39:42.937Z,6.31
2019-02-27T00:40:42.693Z,6.25
2019-02-27T00:41:46.852Z,6.31
2019-02-27T00:42:42.729Z,6.25
2019-02-27T00:43:42.717Z,6.25
2019-02-27T00:44:42.674Z,6.19
2019-02-27T00:45:43.529Z,6.19
2019-02-27T00:46:47.211Z,6.12
2019-02-27T00:47:43.084Z,6.12
2019-02-27T00:48:44.212Z,6.06
2019-02-27T00:49:44.526Z,6
2019-02-27T00:50:42.763Z,5.94
2019-02-27T00:51:45.657Z,5.94
2019-02-27T00:52:42.680Z,5.87
2019-02-27T00:53:42.729Z,5.87
2019-02-27T00:54:43.034Z,5.81
2019-02-27T00:55:42.617Z,5.75
2019-02-27T00:56:45.892Z,5.69
2019-02-27T00:57:42.735Z,5.69
2019-02-27T00:58:43.164Z,5.62
2019-02-27T00:59:43.070Z,5.5
2019-02-27T01:00:43.148Z,5.5
2019-02-27T01:01:48.226Z,5.44
2019-02-27T01:02:42.886Z,5.44
2019-02-27T01:03:43.190Z,5.37
2019-02-27T01:04:42.843Z,5.37
2019-02-27T01:05:43.350Z,5.37
2019-02-27T01:06:48.290Z,5.31
2019-02-27T01:07:42.715Z,5.37
2019-02-27T01:08:42.938Z,5.37
2019-02-27T01:09:42.733Z,5.31
2019-02-27T01:10:46.113Z,5.37
2019-02-27T01:11:42.461Z,5.31
2019-02-27T01:12:43.044Z,5.25
2019-02-27T01:13:42.728Z,5.31
2019-02-27T01:14:43.482Z,5.25
2019-02-27T01:15:45.014Z,5.25
2019-02-27T01:16:42.981Z,5.31
2019-02-27T01:17:42.718Z,5.31
2019-02-27T01:18:43.097Z,5.31
2019-02-27T01:19:43.336Z,5.25
2019-02-27T01:20:46.824Z,5.31
2019-02-27T01:21:42.796Z,5.31
2019-02-27T01:22:42.664Z,5.25
2019-02-27T01:23:44.946Z,5.31
2019-02-27T01:24:42.777Z,5.25
2019-02-27T01:25:42.844Z,5.25
2019-02-27T01:26:42.641Z,5.19
2019-02-27T01:27:42.566Z,5.19
2019-02-27T01:28:45.846Z,5.06
2019-02-27T01:29:42.938Z,5.06
2019-02-27T01:30:43.125Z,5.06
2019-02-27T01:31:42.755Z,5
2019-02-27T01:32:44.429Z,5
2019-02-27T01:33:43.512Z,5
2019-02-27T01:34:45.251Z,5
2019-02-27T01:35:42.716Z,4.94
2019-02-27T01:36:42.998Z,4.94
2019-02-27T01:37:43.010Z,4.94
2019-02-27T01:38:42.750Z,4.87
2019-02-27T01:39:44.966Z,4.94
2019-02-27T01:40:44.428Z,4.87
2019-02-27T01:41:42.734Z,4.87
2019-02-27T01:42:44.458Z,4.94
2019-02-27T01:43:42.605Z,4.94
2019-02-27T01:44:47.411Z,4.94
2019-02-27T01:45:42.644Z,5
2019-02-27T01:46:42.562Z,4.94
2019-02-27T01:47:42.662Z,5
2019-02-27T01:48:44.043Z,5
2019-02-27T01:49:49.753Z,5
2019-02-27T01:50:42.756Z,4.87
2019-02-27T01:51:43.102Z,4.81
2019-02-27T01:52:42.794Z,4.75
2019-02-27T01:53:42.664Z,4.5
2019-02-27T01:54:49.715Z,4.56
2019-02-27T01:55:43.873Z,4.56
2019-02-27T01:56:42.918Z,4.56
2019-02-27T01:57:42.685Z,4.62
2019-02-27T01:58:44.583Z,4.56
2019-02-27T01:59:44.423Z,4.62
2019-02-27T02:00:42.857Z,4.56
2019-02-27T02:01:42.960Z,4.62
2019-02-27T02:02:42.602Z,4.69
2019-02-27T02:03:42.579Z,4.69
2019-02-27T02:04:42.659Z,4.62
2019-02-27T02:05:44.475Z,4.62
2019-02-27T02:06:42.994Z,4.62
2019-02-27T02:07:42.709Z,4.62
2019-02-27T02:08:49.008Z,4.62
2019-02-27T02:09:42.655Z,4.62
2019-02-27T02:10:42.640Z,4.56
2019-02-27T02:11:42.601Z,4.56
2019-02-27T02:12:42.746Z,4.56
2019-02-27T02:13:42.662Z,4.62
2019-02-27T02:14:42.941Z,4.62
2019-02-27T02:15:43.474Z,4.62
2019-02-27T02:16:43.257Z,4.62
2019-02-27T02:17:43.704Z,4.62
2019-02-27T02:18:48.985Z,4.69
2019-02-27T02:19:42.522Z,4.69
2019-02-27T02:20:42.773Z,4.62
2019-02-27T02:21:42.892Z,4.56
2019-02-27T02:22:42.932Z,4.5
2019-02-27T02:23:48.615Z,4.5
2019-02-27T02:24:42.595Z,4.44
2019-02-27T02:25:42.816Z,4.5
2019-02-27T02:26:42.908Z,4.44
2019-02-27T02:27:42.738Z,4.44
2019-02-27T02:28:42.504Z,4.44
2019-02-27T02:29:42.561Z,4.44
2019-02-27T02:30:44.385Z,4.44
2019-02-27T02:31:42.907Z,4.37
2019-02-27T02:32:42.542Z,4.37
2019-02-27T02:33:42.749Z,4.31
2019-02-27T02:34:42.635Z,4.31
2019-02-27T02:35:42.477Z,4.19
2019-02-27T02:36:42.611Z,4.12
2019-02-27T02:37:42.827Z,4.12
2019-02-27T02:38:43.525Z,4.12
2019-02-27T02:39:42.481Z,4.06
2019-02-27T02:40:42.589Z,4
2019-02-27T02:41:48.588Z,4
2019-02-27T02:42:42.872Z,4
2019-02-27T02:43:42.553Z,4
2019-02-27T02:44:44.561Z,3.94
2019-02-27T02:45:42.810Z,4
2019-02-27T02:46:46.605Z,3.94
2019-02-27T02:47:43.102Z,4
2019-02-27T02:48:43.081Z,3.94
2019-02-27T02:49:44.206Z,3.94
2019-02-27T02:50:42.981Z,3.94
2019-02-27T02:51:42.493Z,3.87
2019-02-27T02:52:42.479Z,3.94
2019-02-27T02:53:42.598Z,3.81
2019-02-27T02:54:42.441Z,3.75
2019-02-27T02:55:49.555Z,3.81
2019-02-27T02:56:42.680Z,3.81
2019-02-27T02:57:42.520Z,3.81
2019-02-27T02:58:49.124Z,3.75
2019-02-27T02:59:42.737Z,3.81
2019-02-27T03:00:43.247Z,3.81
2019-02-27T03:01:50.394Z,3.75
2019-02-27T03:02:44.339Z,3.81
2019-02-27T03:03:42.805Z,3.81
2019-02-27T03:04:49.522Z,3.87
2019-02-27T03:05:42.487Z,3.87
2019-02-27T03:06:42.609Z,3.81
2019-02-27T03:07:45.925Z,3.87
2019-02-27T03:08:42.815Z,3.87
2019-02-27T03:09:42.752Z,3.87
2019-02-27T03:10:44.029Z,3.87
2019-02-27T03:11:42.552Z,3.94
2019-02-27T03:12:42.448Z,3.94
2019-02-27T03:13:43.002Z,3.94
2019-02-27T03:14:42.480Z,3.87
2019-02-27T03:15:44.340Z,3.87
2019-02-27T03:16:42.713Z,3.87
2019-02-27T03:17:42.577Z,3.87
2019-02-27T03:18:42.580Z,3.94
2019-02-27T03:19:43.079Z,3.87
2019-02-27T03:20:42.522Z,3.94
2019-02-27T03:21:42.828Z,3.94
2019-02-27T03:22:42.543Z,3.94
2019-02-27T03:23:43.030Z,3.94
2019-02-27T03:24:42.477Z,3.94
2019-02-27T03:25:42.634Z,3.87
2019-02-27T03:26:42.405Z,3.94
2019-02-27T03:27:42.469Z,3.94
2019-02-27T03:28:42.655Z,3.94
2019-02-27T03:29:43.310Z,3.94
2019-02-27T03:30:42.492Z,3.94
2019-02-27T03:31:42.696Z,3.94
2019-02-27T03:32:44.294Z,3.94
2019-02-27T03:33:42.269Z,3.94
2019-02-27T03:34:51.947Z,3.94
2019-02-27T03:35:42.701Z,3.94
2019-02-27T03:36:42.668Z,3.94
2019-02-27T03:37:49.649Z,3.94
2019-02-27T03:38:42.493Z,3.87
2019-02-27T03:39:42.495Z,3.87
2019-02-27T03:40:49.007Z,3.87
2019-02-27T03:41:42.414Z,3.87
2019-02-27T03:42:42.542Z,3.87
2019-02-27T03:43:47.002Z,3.94
2019-02-27T03:44:44.299Z,3.94
2019-02-27T03:45:42.690Z,3.94
2019-02-27T03:46:42.949Z,3.87
2019-02-27T03:47:42.527Z,3.87
2019-02-27T03:48:42.212Z,3.87
2019-02-27T03:49:42.913Z,3.81
2019-02-27T03:50:51.165Z,3.87
2019-02-27T03:51:43.177Z,3.81
2019-02-27T03:52:42.565Z,3.87
2019-02-27T03:53:47.380Z,3.81
2019-02-27T03:54:42.475Z,3.81
2019-02-27T03:55:42.709Z,3.81
2019-02-27T03:56:45.110Z,3.75
2019-02-27T03:57:42.422Z,3.81
2019-02-27T03:58:42.474Z,3.75
2019-02-27T03:59:44.169Z,3.75
2019-02-27T04:00:42.600Z,3.75
2019-02-27T04:01:42.505Z,3.69
2019-02-27T04:02:43.144Z,3.75
2019-02-27T04:03:42.421Z,3.75
2019-02-27T04:04:42.457Z,3.75
2019-02-27T04:05:46.578Z,3.69
2019-02-27T04:06:42.406Z,3.69
2019-02-27T04:07:44.324Z,3.75
2019-02-27T04:08:45.430Z,3.69
2019-02-27T04:09:42.485Z,3.69
2019-02-27T04:10:42.553Z,3.69
2019-02-27T04:11:43.087Z,3.75
2019-02-27T04:12:43.032Z,3.75
2019-02-27T04:13:42.473Z,3.75
2019-02-27T04:14:42.550Z,3.75
2019-02-27T04:15:42.462Z,3.69
2019-02-27T04:16:42.408Z,3.75
2019-02-27T04:17:42.481Z,3.69
2019-02-27T04:18:42.447Z,3.69
2019-02-27T04:19:42.887Z,3.69
2019-02-27T04:20:42.564Z,3.62
2019-02-27T04:21:42.535Z,3.62
2019-02-27T04:22:42.649Z,3.62
2019-02-27T04:23:49.461Z,3.62
2019-02-27T04:24:42.423Z,3.56
2019-02-27T04:25:42.344Z,3.56
2019-02-27T04:26:43.330Z,3.56
2019-02-27T04:27:42.530Z,3.56
2019-02-27T04:28:42.336Z,3.56
2019-02-27T04:29:42.813Z,3.5
2019-02-27T04:30:42.847Z,3.56
2019-02-27T04:31:42.488Z,3.56
2019-02-27T04:32:49.102Z,3.5
2019-02-27T04:33:42.460Z,3.56
2019-02-27T04:34:43.348Z,3.56
2019-02-27T04:35:42.381Z,3.56
2019-02-27T04:36:48.020Z,3.56
2019-02-27T04:37:42.537Z,3.56
2019-02-27T04:38:42.452Z,3.62
2019-02-27T04:39:42.333Z,3.56
2019-02-27T04:40:44.958Z,3.5
2019-02-27T04:41:42.457Z,3.5
2019-02-27T04:42:42.371Z,3.56
2019-02-27T04:43:44.261Z,3.5
2019-02-27T04:44:44.171Z,3.5
2019-02-27T04:45:47.746Z,3.5
2019-02-27T04:46:42.450Z,3.5
2019-02-27T04:47:42.465Z,3.5
2019-02-27T04:48:42.392Z,3.5
2019-02-27T04:49:42.553Z,3.5
2019-02-27T04:50:45.063Z,3.5
2019-02-27T04:51:43.465Z,3.5
2019-02-27T04:52:42.858Z,3.5
2019-02-27T04:53:42.774Z,3.5
2019-02-27T04:54:42.412Z,3.5
2019-02-27T04:55:42.261Z,3.44
2019-02-27T04:56:42.312Z,3.37
2019-02-27T04:57:42.361Z,3.44
2019-02-27T04:58:43.896Z,3.37
2019-02-27T04:59:42.412Z,3.37
2019-02-27T05:00:42.548Z,3.37
2019-02-27T05:01:43.245Z,3.37
2019-02-27T05:02:42.302Z,3.37
2019-02-27T05:03:42.317Z,3.31
2019-02-27T05:04:42.377Z,3.25
2019-02-27T05:05:42.826Z,3.19
2019-02-27T05:06:47.970Z,3.19
2019-02-27T05:07:42.357Z,3.19
2019-02-27T05:08:42.561Z,3.12
2019-02-27T05:09:42.553Z,3.12
2019-02-27T05:10:42.588Z,3.12
2019-02-27T05:11:48.662Z,3.12
2019-02-27T05:12:42.361Z,3.06
2019-02-27T05:13:43.274Z,3.12
2019-02-27T05:14:43.270Z,3.06
2019-02-27T05:15:42.330Z,3.06
2019-02-27T05:16:47.894Z,3.06
2019-02-27T05:17:42.598Z,3.06
2019-02-27T05:18:42.332Z,3.06
2019-02-27T05:19:42.326Z,3.06
2019-02-27T05:20:46.057Z,3.06
2019-02-27T05:21:42.425Z,3.12
2019-02-27T05:22:42.079Z,3.19
2019-02-27T05:23:42.461Z,3.25
2019-02-27T05:24:42.381Z,3.25
2019-02-27T05:25:44.124Z,3.25
2019-02-27T05:26:42.421Z,3.25
2019-02-27T05:27:42.502Z,3.31
2019-02-27T05:28:43.259Z,3.31
2019-02-27T05:29:42.486Z,3.25
2019-02-27T05:30:46.120Z,3.31
2019-02-27T05:31:42.263Z,3.31
2019-02-27T05:32:42.516Z,3.31
2019-02-27T05:33:43.174Z,3.31
2019-02-27T05:34:50.709Z,3.25
2019-02-27T05:35:42.848Z,3.25
2019-02-27T05:36:42.883Z,3.25
2019-02-27T05:37:42.658Z,3.25
2019-02-27T05:38:44.375Z,3.19
2019-02-27T05:39:42.871Z,3.12
2019-02-27T05:40:42.689Z,3.19
2019-02-27T05:41:42.620Z,3.12
2019-02-27T05:42:43.093Z,3.12
2019-02-27T05:43:48.879Z,3.06
2019-02-27T05:44:42.185Z,3.12
2019-02-27T05:45:43.661Z,3.12
2019-02-27T05:46:42.282Z,3.06
2019-02-27T05:47:46.177Z,3.06
2019-02-27T05:48:42.617Z,3.06
2019-02-27T05:49:42.831Z,3.12
2019-02-27T05:50:43.802Z,3.06
2019-02-27T05:51:43.129Z,3.06
2019-02-27T05:52:42.303Z,3.06
2019-02-27T05:53:42.296Z,3.06
2019-02-27T05:54:59.159Z,3
2019-02-27T05:55:42.395Z,2.94
2019-02-27T05:56:42.567Z,2.87
2019-02-27T05:57:42.470Z,2.87
2019-02-27T05:58:43.715Z,2.81
2019-02-27T05:59:42.761Z,2.81
2019-02-27T06:00:42.331Z,2.75
2019-02-27T06:01:42.682Z,2.75
2019-02-27T06:02:45.872Z,2.75
2019-02-27T06:03:42.296Z,2.69
2019-02-27T06:04:42.514Z,2.69
2019-02-27T06:05:50.112Z,2.69
2019-02-27T06:06:46.045Z,2.69
2019-02-27T06:07:43.110Z,2.62
2019-02-27T06:08:42.225Z,2.62
2019-02-27T06:09:45.087Z,2.62
2019-02-27T06:10:42.657Z,2.62
2019-02-27T06:11:42.218Z,2.69
2019-02-27T06:12:42.360Z,2.69
2019-02-27T06:13:47.443Z,2.69
2019-02-27T06:14:42.490Z,2.62
2019-02-27T06:15:42.522Z,2.69
2019-02-27T06:16:42.408Z,2.62
2019-02-27T06:17:50.033Z,2.62
2019-02-27T06:18:42.440Z,2.62
2019-02-27T06:19:43.782Z,2.62
2019-02-27T06:20:43.160Z,2.62
2019-02-27T06:21:43.117Z,2.62
2019-02-27T06:22:42.632Z,2.56
2019-02-27T06:23:42.328Z,2.56
2019-02-27T06:24:46.660Z,2.56
2019-02-27T06:25:42.687Z,2.56
2019-02-27T06:26:42.299Z,2.56
2019-02-27T06:27:42.368Z,2.56
2019-02-27T06:28:42.200Z,2.56
2019-02-27T06:29:43.170Z,2.56
2019-02-27T06:30:42.140Z,2.56
2019-02-27T06:31:42.203Z,2.5
2019-02-27T06:32:43.050Z,2.5
2019-02-27T06:33:46.128Z,2.37
2019-02-27T06:34:42.370Z,2.37
2019-02-27T06:35:42.252Z,2.31
2019-02-27T06:36:43.261Z,2.31
2019-02-27T06:37:42.635Z,2.31
2019-02-27T06:38:42.271Z,2.25
2019-02-27T06:39:43.404Z,2.25
2019-02-27T06:40:43.153Z,2.31
2019-02-27T06:41:42.589Z,2.31
2019-02-27T06:42:43.097Z,2.37
2019-02-27T06:43:42.490Z,2.37
2019-02-27T06:44:42.603Z,2.37
2019-02-27T06:45:46.826Z,2.37
2019-02-27T06:46:42.164Z,2.44
2019-02-27T06:47:42.383Z,2.44
2019-02-27T06:48:44.343Z,2.44
2019-02-27T06:49:42.724Z,2.5
2019-02-27T06:50:42.157Z,2.5
2019-02-27T06:51:42.187Z,2.56
2019-02-27T06:52:43.299Z,2.56
2019-02-27T06:53:42.237Z,2.56
2019-02-27T06:54:43.146Z,2.62
2019-02-27T06:55:42.302Z,2.62
2019-02-27T06:56:42.142Z,2.62
2019-02-27T06:57:42.227Z,2.62
2019-02-27T06:58:42.132Z,2.62
2019-02-27T06:59:42.366Z,2.62
2019-02-27T07:00:42.421Z,2.62
2019-02-27T07:01:42.090Z,2.69
2019-02-27T07:02:42.277Z,2.62
2019-02-27T07:03:42.477Z,2.69
2019-02-27T07:04:42.913Z,2.69
2019-02-27T07:05:48.970Z,2.75
2019-02-27T07:06:42.433Z,2.81
2019-02-27T07:07:42.426Z,2.81
2019-02-27T07:08:42.125Z,2.87
2019-02-27T07:09:46.686Z,2.87
2019-02-27T07:10:42.460Z,2.94
2019-02-27T07:11:49.124Z,2.94
2019-02-27T07:12:42.257Z,2.94
2019-02-27T07:13:42.059Z,3
2019-02-27T07:14:41.928Z,3
2019-02-27T07:15:48.970Z,3
2019-02-27T07:16:42.799Z,3
2019-02-27T07:17:42.310Z,3.06
2019-02-27T07:18:42.688Z,3.12
2019-02-27T07:19:42.516Z,3.12
2019-02-27T07:20:42.631Z,3.19
2019-02-27T07:21:42.169Z,3.19
2019-02-27T07:22:46.967Z,3.25
2019-02-27T07:23:43.930Z,3.19
2019-02-27T07:24:42.197Z,3.25
2019-02-27T07:25:43.918Z,3.31
2019-02-27T07:26:41.887Z,3.31
2019-02-27T07:27:41.900Z,3.31
2019-02-27T07:28:44.307Z,3.31
2019-02-27T07:29:43.268Z,3.37
2019-02-27T07:30:43.438Z,3.44
2019-02-27T07:31:42.742Z,3.44
2019-02-27T07:32:43.916Z,3.5
2019-02-27T07:33:41.919Z,3.5
2019-02-27T07:34:41.876Z,3.56
2019-02-27T07:35:42.165Z,3.56
2019-02-27T07:36:42.262Z,3.62
2019-02-27T07:37:48.506Z,3.69
2019-02-27T07:38:43.926Z,3.69
2019-02-27T07:39:42.418Z,3.75
2019-02-27T07:40:43.745Z,3.75
2019-02-27T07:41:43.886Z,3.75
2019-02-27T07:42:41.879Z,3.87
2019-02-27T07:43:41.870Z,3.87
2019-02-27T07:44:42.714Z,3.87
2019-02-27T07:45:46.398Z,3.94
2019-02-27T07:46:41.852Z,3.87
2019-02-27T07:47:42.043Z,3.87
2019-02-27T07:48:41.849Z,3.87
2019-02-27T07:49:42.812Z,4
2019-02-27T07:50:42.352Z,4
2019-02-27T07:51:42.401Z,4.06
2019-02-27T07:52:42.320Z,4.06
2019-02-27T07:53:42.539Z,4.12
2019-02-27T07:54:42.424Z,4.12
2019-02-27T07:55:42.156Z,4.25
2019-02-27T07:56:42.194Z,4.25
2019-02-27T07:57:42.667Z,4.31
2019-02-27T07:58:42.661Z,4.37
2019-02-27T07:59:42.464Z,4.44
2019-02-27T08:00:43.148Z,4.44
2019-02-27T08:01:44.453Z,4.5
2019-02-27T08:02:42.778Z,4.56
2019-02-27T08:03:46.209Z,4.62
2019-02-27T08:04:43.861Z,4.69
2019-02-27T08:05:42.055Z,4.69
2019-02-27T08:06:42.421Z,4.75
2019-02-27T08:07:42.109Z,4.75
2019-02-27T08:08:42.138Z,4.81
2019-02-27T08:09:42.543Z,4.87
2019-02-27T08:10:42.202Z,4.87
2019-02-27T08:11:48.131Z,4.94
2019-02-27T08:12:42.455Z,5
2019-02-27T08:13:42.467Z,5
2019-02-27T08:14:42.095Z,5.06
2019-02-27T08:15:42.118Z,5.12
2019-02-27T08:16:42.278Z,5.12
2019-02-27T08:17:42.983Z,5.12
2019-02-27T08:18:42.187Z,5.25
2019-02-27T08:19:46.395Z,5.25
2019-02-27T08:20:42.114Z,5.37
2019-02-27T08:21:42.134Z,5.31
2019-02-27T08:22:42.137Z,5.37
2019-02-27T08:23:42.211Z,5.44
2019-02-27T08:24:42.539Z,5.5
2019-02-27T08:25:42.830Z,5.5
2019-02-27T08:26:42.379Z,5.56
2019-02-27T08:27:44.095Z,5.56
2019-02-27T08:28:42.371Z,5.56
2019-02-27T08:29:42.127Z,5.62
2019-02-27T08:30:42.082Z,5.69
2019-02-27T08:31:42.138Z,5.69
2019-02-27T08:32:42.190Z,5.75
2019-02-27T08:33:42.119Z,5.75
2019-02-27T08:34:42.419Z,5.81
2019-02-27T08:35:42.880Z,5.81
2019-02-27T08:36:43.672Z,5.87
2019-02-27T08:37:42.088Z,6
2019-02-27T08:38:42.120Z,6.12
2019-02-27T08:39:42.631Z,6.06
2019-02-27T08:40:42.151Z,6.12
2019-02-27T08:41:42.346Z,6.19
2019-02-27T08:42:41.968Z,6.19
2019-02-27T08:43:42.172Z,6.25
2019-02-27T08:44:46.903Z,6.25
2019-02-27T08:45:42.810Z,6.25
2019-02-27T08:46:41.984Z,6.31
2019-02-27T08:47:44.809Z,6.37
2019-02-27T08:48:42.189Z,6.37
2019-02-27T08:49:42.177Z,6.44
2019-02-27T08:50:41.780Z,6.5
2019-02-27T08:51:42.849Z,6.56
2019-02-27T08:52:41.802Z,6.62
2019-02-27T08:53:41.927Z,6.69
2019-02-27T08:54:42.347Z,6.69
2019-02-27T08:55:42.430Z,6.75
2019-02-27T08:56:48.082Z,6.75
2019-02-27T08:57:42.561Z,6.81
2019-02-27T08:58:42.938Z,6.87
2019-02-27T08:59:42.135Z,6.94
2019-02-27T09:00:42.013Z,7
2019-02-27T09:01:42.577Z,7
2019-02-27T09:02:42.076Z,7.06
2019-02-27T09:03:42.203Z,7.12
2019-02-27T09:04:46.340Z,7.12
2019-02-27T09:05:42.703Z,7.25
2019-02-27T09:06:42.312Z,7.25
2019-02-27T09:07:43.353Z,7.31
2019-02-27T09:08:44.540Z,7.37
2019-02-27T09:09:42.154Z,7.37
2019-02-27T09:10:42.033Z,7.5
2019-02-27T09:11:42.526Z,7.56
2019-02-27T09:12:42.025Z,7.56
2019-02-27T09:13:42.145Z,7.62
2019-02-27T09:14:41.953Z,7.62
2019-02-27T09:15:43.797Z,7.69
2019-02-27T09:16:42.765Z,7.75
2019-02-27T09:17:42.103Z,7.75
2019-02-27T09:18:44.446Z,7.81
2019-02-27T09:19:46.662Z,7.87
2019-02-27T09:20:42.615Z,8
2019-02-27T09:21:41.901Z,8
2019-02-27T09:22:42.062Z,8.06
2019-02-27T09:23:42.759Z,8.13
2019-02-27T09:24:42.874Z,8.19
2019-02-27T09:25:42.593Z,8.25
2019-02-27T09:26:42.729Z,8.25
2019-02-27T09:27:42.439Z,8.31
2019-02-27T09:28:45.385Z,8.44
2019-02-27T09:29:42.244Z,8.44
2019-02-27T09:30:41.879Z,8.56
2019-02-27T09:31:51.355Z,8.5
2019-02-27T09:32:46.899Z,8.5
2019-02-27T09:33:41.932Z,8.56
2019-02-27T09:34:42.717Z,8.56
2019-02-27T09:35:42.207Z,8.69
2019-02-27T09:36:44.048Z,8.69
2019-02-27T09:37:42.617Z,8.75
2019-02-27T09:38:42.047Z,8.81
2019-02-27T09:39:42.759Z,9
2019-02-27T09:40:42.143Z,9
2019-02-27T09:41:47.278Z,9.06
2019-02-27T09:42:41.724Z,9.06
2019-02-27T09:43:41.717Z,9.13
2019-02-27T09:44:41.709Z,9.25
2019-02-27T09:45:47.333Z,9.31
2019-02-27T09:46:41.691Z,9.31
2019-02-27T09:47:41.718Z,9.25
2019-02-27T09:48:42.174Z,9.31
2019-02-27T09:49:42.075Z,9.31
2019-02-27T09:50:49.317Z,9.38
2019-02-27T09:51:41.851Z,9.44
2019-02-27T09:52:41.904Z,9.56
2019-02-27T09:53:42.198Z,9.56
2019-02-27T09:54:47.791Z,9.56
2019-02-27T09:55:41.837Z,9.63
2019-02-27T09:56:41.893Z,9.69
2019-02-27T09:57:42.237Z,9.75
2019-02-27T09:58:46.479Z,9.75
2019-02-27T09:59:41.885Z,9.75
2019-02-27T10:00:42.100Z,9.75
2019-02-27T10:01:41.677Z,9.88
2019-02-27T10:02:47.159Z,9.94
2019-02-27T10:03:42.774Z,10
2019-02-27T10:04:41.861Z,10
2019-02-27T10:05:43.688Z,10
2019-02-27T10:06:43.761Z,10
2019-02-27T10:07:41.807Z,10.06
2019-02-27T10:08:42.037Z,10.06
2019-02-27T10:09:42.042Z,10.19
2019-02-27T10:10:46.288Z,10.25
2019-02-27T10:11:41.827Z,10.31
2019-02-27T10:12:42.591Z,10.44
2019-02-27T10:13:42.151Z,10.44
2019-02-27T10:14:42.785Z,10.5
2019-02-27T10:15:42.156Z,10.5
2019-02-27T10:16:41.831Z,10.5
2019-02-27T10:17:44.457Z,10.56
2019-02-27T10:18:42.178Z,10.5
2019-02-27T10:19:42.087Z,10.56
2019-02-27T10:20:43.687Z,10.63
2019-02-27T10:21:47.742Z,10.63
2019-02-27T10:22:42.096Z,10.69
2019-02-27T10:23:41.854Z,10.75
2019-02-27T10:24:43.676Z,10.75
2019-02-27T10:25:44.384Z,10.81
2019-02-27T10:26:42.228Z,10.81
2019-02-27T10:27:42.145Z,10.81
2019-02-27T10:28:44.269Z,10.88
2019-02-27T10:29:41.911Z,10.88
2019-02-27T10:30:41.846Z,10.88
2019-02-27T10:31:42.242Z,10.94
2019-02-27T10:32:42.249Z,10.94
2019-02-27T10:33:43.958Z,11
2019-02-27T10:34:42.171Z,11.06
2019-02-27T10:35:42.280Z,11.12
2019-02-27T10:36:42.694Z,11.19
2019-02-27T10:37:42.621Z,11.19
2019-02-27T10:38:45.744Z,11.25
2019-02-27T10:39:42.298Z,11.38
2019-02-27T10:40:42.215Z,11.31
2019-02-27T10:41:42.106Z,11.38
2019-02-27T10:42:42.122Z,11.38
2019-02-27T10:43:42.042Z,11.5
2019-02-27T10:44:43.654Z,11.5
2019-02-27T10:45:42.568Z,11.63
2019-02-27T10:46:41.799Z,11.69
2019-02-27T10:47:42.982Z,11.69
2019-02-27T10:48:47.615Z,11.75
2019-02-27T10:49:41.810Z,11.81
2019-02-27T10:50:41.927Z,11.88
2019-02-27T10:51:44.568Z,11.94
2019-02-27T10:52:41.835Z,11.94
2019-02-27T10:53:42.641Z,11.94
2019-02-27T10:54:41.891Z,12.06
2019-02-27T10:55:42.371Z,12.06
2019-02-27T10:56:42.627Z,12.06
2019-02-27T10:57:41.802Z,12.13
2019-02-27T10:58:41.772Z,12.19
2019-02-27T10:59:41.911Z,12.19
2019-02-27T11:00:42.772Z,12.31
2019-02-27T11:01:41.841Z,12.37
2019-02-27T11:02:41.853Z,12.5
2019-02-27T11:03:43.616Z,12.56
2019-02-27T11:04:43.126Z,12.56
2019-02-27T11:05:42.082Z,12.63
2019-02-27T11:06:41.859Z,12.63
2019-02-27T11:07:41.845Z,12.69
2019-02-27T11:08:41.764Z,12.75
2019-02-27T11:09:43.142Z,12.75
2019-02-27T11:10:42.317Z,12.75
2019-02-27T11:11:42.424Z,12.88
2019-02-27T11:12:42.135Z,12.88
2019-02-27T11:13:42.057Z,12.94
2019-02-27T11:14:41.815Z,12.94
2019-02-27T11:15:45.941Z,12.94
2019-02-27T11:16:42.159Z,13.06
2019-02-27T11:17:41.783Z,13.13
2019-02-27T11:18:43.047Z,13.25
2019-02-27T11:19:43.201Z,13.25
2019-02-27T11:20:42.281Z,13.25
2019-02-27T11:21:41.787Z,13.38
2019-02-27T11:22:42.092Z,13.38
2019-02-27T11:23:42.052Z,13.44
2019-02-27T11:24:42.198Z,13.5
2019-02-27T11:25:42.013Z,13.5
2019-02-27T11:26:41.847Z,13.62
2019-02-27T11:27:41.777Z,13.69
2019-02-27T11:28:48.490Z,13.69
2019-02-27T11:29:41.763Z,13.62
2019-02-27T11:30:42.757Z,13.75
2019-02-27T11:31:46.384Z,13.75
2019-02-27T11:32:42.648Z,13.81
2019-02-27T11:33:41.861Z,13.81
2019-02-27T11:34:49.378Z,13.88
2019-02-27T11:35:41.871Z,14
2019-02-27T11:36:42.066Z,14
2019-02-27T11:37:47.869Z,14.06
2019-02-27T11:38:41.793Z,14.13
2019-02-27T11:39:41.679Z,14.19
2019-02-27T11:40:43.139Z,14.25
2019-02-27T11:41:42.027Z,14.25
2019-02-27T11:42:42.142Z,14.25
2019-02-27T11:43:42.154Z,14.25
2019-02-27T11:44:42.750Z,14.38
2019-02-27T11:45:42.258Z,14.44
2019-02-27T11:46:41.888Z,14.44
2019-02-27T11:47:48.391Z,14.44
2019-02-27T11:48:42.077Z,14.44
2019-02-27T11:49:43.602Z,14.5
2019-02-27T11:50:41.750Z,14.56
2019-02-27T11:51:42.078Z,14.63
2019-02-27T11:52:49.464Z,14.75
2019-02-27T11:53:41.970Z,14.69
2019-02-27T11:54:44.076Z,14.75
2019-02-27T11:55:42.498Z,14.81
2019-02-27T11:56:41.829Z,14.87
2019-02-27T11:57:43.490Z,14.94
2019-02-27T11:58:41.873Z,15
2019-02-27T11:59:47.671Z,15.06
2019-02-27T12:00:42.042Z,15.06
2019-02-27T12:01:41.725Z,15
2019-02-27T12:02:41.825Z,15
2019-02-27T12:03:46.703Z,15.06
2019-02-27T12:04:41.934Z,15.13
2019-02-27T12:05:41.736Z,15.13
2019-02-27T12:06:42.452Z,15.19
2019-02-27T12:07:43.525Z,15.19
2019-02-27T12:08:41.786Z,15.25
2019-02-27T12:09:43.124Z,15.25
2019-02-27T12:10:41.743Z,15.25
2019-02-27T12:11:49.574Z,15.31
2019-02-27T12:12:42.470Z,15.31
2019-02-27T12:13:41.781Z,15.38
2019-02-27T12:14:42.139Z,15.44
2019-02-27T12:15:44.596Z,15.56
2019-02-27T12:16:42.793Z,15.5
2019-02-27T12:17:41.657Z,15.56
2019-02-27T12:18:41.976Z,15.56
2019-02-27T12:19:45.575Z,15.63
2019-02-27T12:20:41.874Z,15.63
2019-02-27T12:21:41.708Z,15.63
2019-02-27T12:22:42.202Z,15.69
2019-02-27T12:23:45.043Z,15.75
2019-02-27T12:24:41.742Z,15.81
2019-02-27T12:25:41.898Z,15.94
2019-02-27T12:26:41.757Z,15.94
2019-02-27T12:27:50.222Z,16
2019-02-27T12:28:41.744Z,16
2019-02-27T12:29:42.047Z,16.12
2019-02-27T12:30:41.757Z,16.25
2019-02-27T12:31:42.339Z,16.31
2019-02-27T12:32:42.248Z,16.31
2019-02-27T12:33:41.701Z,16.44
2019-02-27T12:34:41.858Z,16.44
2019-02-27T12:35:45.247Z,16.37
2019-02-27T12:36:41.720Z,16.37
2019-02-27T12:37:41.750Z,16.37
2019-02-27T12:38:42.764Z,16.31
2019-02-27T12:39:43.814Z,16.31
2019-02-27T12:40:42.132Z,16.37
2019-02-27T12:41:41.626Z,16.44
2019-02-27T12:42:43.394Z,16.56
2019-02-27T12:43:41.815Z,16.56
2019-02-27T12:44:41.681Z,16.62
2019-02-27T12:45:41.705Z,16.69
2019-02-27T12:46:42.251Z,16.75
2019-02-27T12:47:41.879Z,16.75
2019-02-27T12:48:47.307Z,16.75
2019-02-27T12:49:41.895Z,16.69
2019-02-27T12:50:41.425Z,16.69
2019-02-27T12:51:41.735Z,16.81
2019-02-27T12:52:48.386Z,16.87
2019-02-27T12:53:42.750Z,16.94
2019-02-27T12:54:42.181Z,17.06
2019-02-27T12:55:42.443Z,17.12
2019-02-27T12:56:44.725Z,17.19
2019-02-27T12:57:41.632Z,17.19
2019-02-27T12:58:41.678Z,17.31
2019-02-27T12:59:41.815Z,17.37
2019-02-27T13:00:43.332Z,17.44
2019-02-27T13:01:43.178Z,17.5
2019-02-27T13:02:42.133Z,17.5
2019-02-27T13:03:43.232Z,17.44
2019-02-27T13:04:41.578Z,17.37
2019-02-27T13:05:41.866Z,17.37
2019-02-27T13:06:41.879Z,17.44
2019-02-27T13:07:45.693Z,17.37
2019-02-27T13:08:41.709Z,17.5
2019-02-27T13:09:41.867Z,17.5
2019-02-27T13:10:41.678Z,17.5
2019-02-27T13:11:45.223Z,17.56
2019-02-27T13:12:41.668Z,17.56
2019-02-27T13:13:41.690Z,17.56
2019-02-27T13:14:41.788Z,17.69
2019-02-27T13:15:42.031Z,17.69
2019-02-27T13:16:42.866Z,17.81
2019-02-27T13:17:43.432Z,17.87